sensor_id;sensor_type;location;lat;lon;timestamp;temperature;humidity
5796;DHT22;2924;51.458;7.046;2023-12-28T00:00:30;7.40;99.90
5796;DHT22;2924;51.458;7.046;2023-12-28T00:02:55;7.40;99.90
5796;DHT22;2924;51.458;7.046;2023-12-28T00:05:21;7.30;99.90
5796;DHT22;2924;51.458;7.046;2023-12-28T00:07:47;7.30;99.90
5796;DHT22;2924;51.458;7.046;2023-12-28T00:10:16;7.30;99.90
5796;DHT22;2924;51.458;7.046;2023-12-28T00:12:42;7.30;99.90
5796;DHT22;2924;51.458;7.046;2023-12-28T00:15:07;7.30;99.90
5796;DHT22;2924;51.458;7.046;2023-12-28T00:17:33;7.30;99.90
5796;DHT22;2924;51.458;7.046;2023-12-28T00:19:59;7.30;99.90
5796;DHT22;2924;51.458;7.046;2023-12-28T00:22:24;7.30;99.90
5796;DHT22;2924;51.458;7.046;2023-12-28T00:24:50;7.40;99.90
5796;DHT22;2924;51.458;7.046;2023-12-28T00:27:15;7.40;99.90
5796;DHT22;2924;51.458;7.046;2023-12-28T00:29:41;7.50;99.90
5796;DHT22;2924;51.458;7.046;2023-12-28T00:32:08;7.50;99.90
5796;DHT22;2924;51.458;7.046;2023-12-28T00:34:34;7.60;99.90
5796;DHT22;2924;51.458;7.046;2023-12-28T00:37:01;7.60;99.90
5796;DHT22;2924;51.458;7.046;2023-12-28T00:39:27;7.60;99.90
5796;DHT22;2924;51.458;7.046;2023-12-28T00:41:52;7.70;99.90
5796;DHT22;2924;51.458;7.046;2023-12-28T00:44:18;7.70;99.90
5796;DHT22;2924;51.458;7.046;2023-12-28T00:46:43;7.70;99.90
5796;DHT22;2924;51.458;7.046;2023-12-28T00:49:09;7.80;99.90
5796;DHT22;2924;51.458;7.046;2023-12-28T00:51:35;7.90;99.90
5796;DHT22;2924;51.458;7.046;2023-12-28T00:54:00;7.90;99.90
5796;DHT22;2924;51.458;7.046;2023-12-28T00:56:26;7.90;99.90
5796;DHT22;2924;51.458;7.046;2023-12-28T00:58:51;8.00;99.90
5796;DHT22;2924;51.458;7.046;2023-12-28T01:01:17;8.10;99.90
5796;DHT22;2924;51.458;7.046;2023-12-28T01:03:42;8.20;99.90
5796;DHT22;2924;51.458;7.046;2023-12-28T01:06:08;8.30;99.90
5796;DHT22;2924;51.458;7.046;2023-12-28T01:08:33;8.30;99.90
5796;DHT22;2924;51.458;7.046;2023-12-28T01:10:59;8.30;99.90
5796;DHT22;2924;51.458;7.046;2023-12-28T01:13:25;8.40;99.90
5796;DHT22;2924;51.458;7.046;2023-12-28T01:15:51;8.40;99.90
5796;DHT22;2924;51.458;7.046;2023-12-28T01:18:17;8.40;99.90
5796;DHT22;2924;51.458;7.046;2023-12-28T01:20:42;8.50;99.90
5796;DHT22;2924;51.458;7.046;2023-12-28T01:23:08;8.50;99.90
5796;DHT22;2924;51.458;7.046;2023-12-28T01:25:33;8.60;99.90
5796;DHT22;2924;51.458;7.046;2023-12-28T01:27:59;8.70;99.90
5796;DHT22;2924;51.458;7.046;2023-12-28T01:30:25;8.80;99.90
5796;DHT22;2924;51.458;7.046;2023-12-28T01:32:51;8.90;99.90
5796;DHT22;2924;51.458;7.046;2023-12-28T01:35:17;9.00;99.90
5796;DHT22;2924;51.458;7.046;2023-12-28T01:37:42;9.00;99.90
5796;DHT22;2924;51.458;7.046;2023-12-28T01:40:08;9.00;99.90
5796;DHT22;2924;51.458;7.046;2023-12-28T01:42:34;9.10;99.90
5796;DHT22;2924;51.458;7.046;2023-12-28T01:45:00;9.10;99.90
5796;DHT22;2924;51.458;7.046;2023-12-28T01:47:26;9.10;99.90
5796;DHT22;2924;51.458;7.046;2023-12-28T01:49:53;9.20;99.90
5796;DHT22;2924;51.458;7.046;2023-12-28T01:52:20;9.10;99.90
5796;DHT22;2924;51.458;7.046;2023-12-28T01:54:45;9.10;99.90
5796;DHT22;2924;51.458;7.046;2023-12-28T01:57:12;9.00;99.90
5796;DHT22;2924;51.458;7.046;2023-12-28T01:59:39;9.10;99.90
5796;DHT22;2924;51.458;7.046;2023-12-28T02:02:06;9.00;99.90
5796;DHT22;2924;51.458;7.046;2023-12-28T02:04:32;9.00;99.90
5796;DHT22;2924;51.458;7.046;2023-12-28T02:07:00;8.90;99.90
5796;DHT22;2924;51.458;7.046;2023-12-28T02:09:26;9.00;99.90
5796;DHT22;2924;51.458;7.046;2023-12-28T02:11:52;8.90;99.90
5796;DHT22;2924;51.458;7.046;2023-12-28T02:14:18;9.00;99.90
5796;DHT22;2924;51.458;7.046;2023-12-28T02:16:53;9.00;99.90
5796;DHT22;2924;51.458;7.046;2023-12-28T02:19:53;9.00;99.90
5796;DHT22;2924;51.458;7.046;2023-12-28T02:22:24;9.00;99.90
5796;DHT22;2924;51.458;7.046;2023-12-28T02:25:04;9.00;99.90
5796;DHT22;2924;51.458;7.046;2023-12-28T02:27:29;9.00;99.90
5796;DHT22;2924;51.458;7.046;2023-12-28T02:29:55;8.90;99.90
5796;DHT22;2924;51.458;7.046;2023-12-28T02:32:40;9.00;99.90
5796;DHT22;2924;51.458;7.046;2023-12-28T02:35:17;9.00;99.90
5796;DHT22;2924;51.458;7.046;2023-12-28T02:37:44;9.00;99.90
5796;DHT22;2924;51.458;7.046;2023-12-28T02:40:15;9.00;99.90
5796;DHT22;2924;51.458;7.046;2023-12-28T02:42:40;9.00;99.90
5796;DHT22;2924;51.458;7.046;2023-12-28T02:45:06;9.00;99.90
5796;DHT22;2924;51.458;7.046;2023-12-28T02:47:32;9.00;99.90
5796;DHT22;2924;51.458;7.046;2023-12-28T02:49:57;9.00;99.90
5796;DHT22;2924;51.458;7.046;2023-12-28T02:52:24;8.90;99.90
5796;DHT22;2924;51.458;7.046;2023-12-28T02:54:50;8.90;99.90
5796;DHT22;2924;51.458;7.046;2023-12-28T02:57:15;8.90;99.90
5796;DHT22;2924;51.458;7.046;2023-12-28T02:59:44;8.80;99.90
5796;DHT22;2924;51.458;7.046;2023-12-28T03:02:10;8.80;99.90
5796;DHT22;2924;51.458;7.046;2023-12-28T03:04:36;8.80;99.90
5796;DHT22;2924;51.458;7.046;2023-12-28T03:07:01;8.80;99.90
5796;DHT22;2924;51.458;7.046;2023-12-28T03:09:27;8.80;99.90
5796;DHT22;2924;51.458;7.046;2023-12-28T03:11:52;8.80;99.90
5796;DHT22;2924;51.458;7.046;2023-12-28T03:14:18;8.80;99.90
5796;DHT22;2924;51.458;7.046;2023-12-28T03:16:43;8.90;99.90
5796;DHT22;2924;51.458;7.046;2023-12-28T03:19:09;9.00;99.90
5796;DHT22;2924;51.458;7.046;2023-12-28T03:21:39;8.90;99.90
5796;DHT22;2924;51.458;7.046;2023-12-28T03:24:05;9.00;99.90
5796;DHT22;2924;51.458;7.046;2023-12-28T03:26:31;9.00;99.90
5796;DHT22;2924;51.458;7.046;2023-12-28T03:28:57;9.00;99.90
5796;DHT22;2924;51.458;7.046;2023-12-28T03:31:22;9.00;99.90
5796;DHT22;2924;51.458;7.046;2023-12-28T03:33:48;9.00;99.90
5796;DHT22;2924;51.458;7.046;2023-12-28T03:36:20;9.00;99.90
5796;DHT22;2924;51.458;7.046;2023-12-28T03:38:46;9.00;99.90
5796;DHT22;2924;51.458;7.046;2023-12-28T03:41:18;9.00;99.90
5796;DHT22;2924;51.458;7.046;2023-12-28T03:43:45;9.00;99.90
5796;DHT22;2924;51.458;7.046;2023-12-28T03:46:11;9.00;99.90
5796;DHT22;2924;51.458;7.046;2023-12-28T03:48:36;8.90;99.90
5796;DHT22;2924;51.458;7.046;2023-12-28T03:51:03;9.00;99.90
5796;DHT22;2924;51.458;7.046;2023-12-28T03:53:29;9.00;99.90
5796;DHT22;2924;51.458;7.046;2023-12-28T03:55:57;9.00;99.90
5796;DHT22;2924;51.458;7.046;2023-12-28T03:58:23;9.10;99.90
5796;DHT22;2924;51.458;7.046;2023-12-28T04:00:48;9.00;99.90
5796;DHT22;2924;51.458;7.046;2023-12-28T04:03:14;9.10;99.90
5796;DHT22;2924;51.458;7.046;2023-12-28T04:05:39;9.20;99.90
5796;DHT22;2924;51.458;7.046;2023-12-28T04:08:05;9.20;99.90
5796;DHT22;2924;51.458;7.046;2023-12-28T04:10:33;9.30;99.90
5796;DHT22;2924;51.458;7.046;2023-12-28T04:12:59;9.30;99.90
5796;DHT22;2924;51.458;7.046;2023-12-28T04:15:26;9.30;99.90
5796;DHT22;2924;51.458;7.046;2023-12-28T04:17:51;9.30;99.90
5796;DHT22;2924;51.458;7.046;2023-12-28T04:20:17;9.30;99.90
5796;DHT22;2924;51.458;7.046;2023-12-28T04:22:43;9.30;99.90
5796;DHT22;2924;51.458;7.046;2023-12-28T04:25:11;9.30;99.90
5796;DHT22;2924;51.458;7.046;2023-12-28T04:27:41;9.30;99.90
5796;DHT22;2924;51.458;7.046;2023-12-28T04:30:07;9.30;99.90
5796;DHT22;2924;51.458;7.046;2023-12-28T04:32:33;9.30;99.90
5796;DHT22;2924;51.458;7.046;2023-12-28T04:34:59;9.40;99.90
5796;DHT22;2924;51.458;7.046;2023-12-28T04:37:24;9.40;99.90
5796;DHT22;2924;51.458;7.046;2023-12-28T04:39:52;9.40;99.90
5796;DHT22;2924;51.458;7.046;2023-12-28T04:42:18;9.50;99.90
5796;DHT22;2924;51.458;7.046;2023-12-28T04:44:44;9.50;99.90
5796;DHT22;2924;51.458;7.046;2023-12-28T04:47:09;9.50;99.90
5796;DHT22;2924;51.458;7.046;2023-12-28T04:49:35;9.50;99.90
5796;DHT22;2924;51.458;7.046;2023-12-28T04:52:00;9.50;99.90
5796;DHT22;2924;51.458;7.046;2023-12-28T04:54:26;9.60;99.90
5796;DHT22;2924;51.458;7.046;2023-12-28T04:56:52;9.60;99.90
5796;DHT22;2924;51.458;7.046;2023-12-28T04:59:18;9.70;99.90
5796;DHT22;2924;51.458;7.046;2023-12-28T05:01:44;9.70;99.90
5796;DHT22;2924;51.458;7.046;2023-12-28T05:04:10;9.70;99.90
5796;DHT22;2924;51.458;7.046;2023-12-28T05:06:35;9.70;99.90
5796;DHT22;2924;51.458;7.046;2023-12-28T05:09:01;9.70;99.90
5796;DHT22;2924;51.458;7.046;2023-12-28T05:11:27;9.70;99.90
5796;DHT22;2924;51.458;7.046;2023-12-28T05:13:53;9.70;99.90
5796;DHT22;2924;51.458;7.046;2023-12-28T05:16:19;9.70;99.90
5796;DHT22;2924;51.458;7.046;2023-12-28T05:18:45;9.60;99.90
5796;DHT22;2924;51.458;7.046;2023-12-28T05:21:12;9.60;99.90
5796;DHT22;2924;51.458;7.046;2023-12-28T05:23:37;9.70;99.90
5796;DHT22;2924;51.458;7.046;2023-12-28T05:26:04;9.70;99.90
5796;DHT22;2924;51.458;7.046;2023-12-28T05:28:30;9.70;99.90
5796;DHT22;2924;51.458;7.046;2023-12-28T05:30:55;9.70;99.90
5796;DHT22;2924;51.458;7.046;2023-12-28T05:33:21;9.80;99.90
5796;DHT22;2924;51.458;7.046;2023-12-28T05:35:48;9.80;99.90
5796;DHT22;2924;51.458;7.046;2023-12-28T05:38:13;9.80;99.90
5796;DHT22;2924;51.458;7.046;2023-12-28T05:40:39;9.80;99.90
5796;DHT22;2924;51.458;7.046;2023-12-28T05:43:04;9.80;99.90
5796;DHT22;2924;51.458;7.046;2023-12-28T05:45:30;9.80;99.90
5796;DHT22;2924;51.458;7.046;2023-12-28T05:47:55;9.80;99.90
5796;DHT22;2924;51.458;7.046;2023-12-28T05:50:21;9.80;99.90
5796;DHT22;2924;51.458;7.046;2023-12-28T05:52:47;9.80;99.90
5796;DHT22;2924;51.458;7.046;2023-12-28T05:55:13;9.80;99.90
5796;DHT22;2924;51.458;7.046;2023-12-28T05:57:38;9.80;99.90
5796;DHT22;2924;51.458;7.046;2023-12-28T06:00:05;9.70;99.90
5796;DHT22;2924;51.458;7.046;2023-12-28T06:02:31;9.80;99.90
5796;DHT22;2924;51.458;7.046;2023-12-28T06:04:57;9.70;99.90
5796;DHT22;2924;51.458;7.046;2023-12-28T06:07:22;9.70;99.90
5796;DHT22;2924;51.458;7.046;2023-12-28T06:09:48;9.70;99.90
5796;DHT22;2924;51.458;7.046;2023-12-28T06:12:14;9.80;99.90
5796;DHT22;2924;51.458;7.046;2023-12-28T06:14:40;9.80;99.90
5796;DHT22;2924;51.458;7.046;2023-12-28T06:17:05;9.80;99.90
5796;DHT22;2924;51.458;7.046;2023-12-28T06:19:31;9.80;99.90
5796;DHT22;2924;51.458;7.046;2023-12-28T06:21:57;9.70;99.90
5796;DHT22;2924;51.458;7.046;2023-12-28T06:24:24;9.80;99.90
5796;DHT22;2924;51.458;7.046;2023-12-28T06:26:49;9.80;99.90
5796;DHT22;2924;51.458;7.046;2023-12-28T06:29:16;9.70;99.90
5796;DHT22;2924;51.458;7.046;2023-12-28T06:31:41;9.70;99.90
5796;DHT22;2924;51.458;7.046;2023-12-28T06:34:07;9.70;99.90
5796;DHT22;2924;51.458;7.046;2023-12-28T06:36:33;9.70;99.90
5796;DHT22;2924;51.458;7.046;2023-12-28T06:38:59;9.60;99.90
5796;DHT22;2924;51.458;7.046;2023-12-28T06:41:25;9.60;99.90
5796;DHT22;2924;51.458;7.046;2023-12-28T06:43:51;9.50;99.90
5796;DHT22;2924;51.458;7.046;2023-12-28T06:46:17;9.50;99.90
5796;DHT22;2924;51.458;7.046;2023-12-28T06:48:43;9.60;99.90
5796;DHT22;2924;51.458;7.046;2023-12-28T06:51:09;9.50;99.90
5796;DHT22;2924;51.458;7.046;2023-12-28T06:53:35;9.50;99.90
5796;DHT22;2924;51.458;7.046;2023-12-28T06:56:01;9.40;99.90
5796;DHT22;2924;51.458;7.046;2023-12-28T06:58:26;9.40;99.90
5796;DHT22;2924;51.458;7.046;2023-12-28T07:00:52;9.40;99.90
5796;DHT22;2924;51.458;7.046;2023-12-28T07:03:18;9.40;99.90
5796;DHT22;2924;51.458;7.046;2023-12-28T07:05:43;9.30;99.90
5796;DHT22;2924;51.458;7.046;2023-12-28T07:08:09;9.40;99.90
5796;DHT22;2924;51.458;7.046;2023-12-28T07:10:34;9.40;99.90
5796;DHT22;2924;51.458;7.046;2023-12-28T07:13:01;9.50;99.90
5796;DHT22;2924;51.458;7.046;2023-12-28T07:15:26;9.40;99.90
5796;DHT22;2924;51.458;7.046;2023-12-28T07:17:52;9.40;99.90
5796;DHT22;2924;51.458;7.046;2023-12-28T07:20:17;9.50;99.90
5796;DHT22;2924;51.458;7.046;2023-12-28T07:22:43;9.40;99.90
5796;DHT22;2924;51.458;7.046;2023-12-28T07:25:09;9.40;99.90
5796;DHT22;2924;51.458;7.046;2023-12-28T07:27:34;9.40;99.90
5796;DHT22;2924;51.458;7.046;2023-12-28T07:30:02;9.40;99.90
5796;DHT22;2924;51.458;7.046;2023-12-28T07:32:29;9.50;99.90
5796;DHT22;2924;51.458;7.046;2023-12-28T07:34:54;9.50;99.90
5796;DHT22;2924;51.458;7.046;2023-12-28T07:37:20;9.50;99.90
5796;DHT22;2924;51.458;7.046;2023-12-28T07:39:47;9.50;99.90
5796;DHT22;2924;51.458;7.046;2023-12-28T07:42:12;9.50;99.90
5796;DHT22;2924;51.458;7.046;2023-12-28T07:44:38;9.60;99.90
5796;DHT22;2924;51.458;7.046;2023-12-28T07:47:04;9.60;99.90
5796;DHT22;2924;51.458;7.046;2023-12-28T07:49:30;9.80;99.90
5796;DHT22;2924;51.458;7.046;2023-12-28T07:51:56;9.70;99.90
5796;DHT22;2924;51.458;7.046;2023-12-28T07:54:22;9.70;99.90
5796;DHT22;2924;51.458;7.046;2023-12-28T07:56:47;9.70;99.90
5796;DHT22;2924;51.458;7.046;2023-12-28T07:59:13;9.80;99.90
5796;DHT22;2924;51.458;7.046;2023-12-28T08:01:39;9.80;99.90
5796;DHT22;2924;51.458;7.046;2023-12-28T08:04:04;9.80;99.90
5796;DHT22;2924;51.458;7.046;2023-12-28T08:06:30;9.90;99.90
5796;DHT22;2924;51.458;7.046;2023-12-28T08:08:59;9.90;99.90
5796;DHT22;2924;51.458;7.046;2023-12-28T08:11:26;9.90;99.90
5796;DHT22;2924;51.458;7.046;2023-12-28T08:13:52;9.90;99.90
5796;DHT22;2924;51.458;7.046;2023-12-28T08:16:17;9.90;99.90
5796;DHT22;2924;51.458;7.046;2023-12-28T08:18:43;9.90;99.90
5796;DHT22;2924;51.458;7.046;2023-12-28T08:21:09;9.90;99.90
5796;DHT22;2924;51.458;7.046;2023-12-28T08:23:34;9.90;99.90
5796;DHT22;2924;51.458;7.046;2023-12-28T08:26:00;9.90;99.90
5796;DHT22;2924;51.458;7.046;2023-12-28T08:28:25;9.90;99.90
5796;DHT22;2924;51.458;7.046;2023-12-28T08:30:51;9.90;99.90
5796;DHT22;2924;51.458;7.046;2023-12-28T08:33:17;9.90;99.90
5796;DHT22;2924;51.458;7.046;2023-12-28T08:35:42;9.90;99.90
5796;DHT22;2924;51.458;7.046;2023-12-28T08:38:08;10.00;99.90
5796;DHT22;2924;51.458;7.046;2023-12-28T08:40:34;10.00;99.90
5796;DHT22;2924;51.458;7.046;2023-12-28T08:43:00;10.10;99.90
5796;DHT22;2924;51.458;7.046;2023-12-28T08:45:25;10.10;99.90
5796;DHT22;2924;51.458;7.046;2023-12-28T08:47:51;10.00;99.90
5796;DHT22;2924;51.458;7.046;2023-12-28T08:50:16;10.10;99.90
5796;DHT22;2924;51.458;7.046;2023-12-28T08:52:42;10.10;99.90
5796;DHT22;2924;51.458;7.046;2023-12-28T08:55:08;10.10;99.90
5796;DHT22;2924;51.458;7.046;2023-12-28T08:57:33;10.20;99.90
5796;DHT22;2924;51.458;7.046;2023-12-28T08:59:59;10.20;99.90
5796;DHT22;2924;51.458;7.046;2023-12-28T09:02:29;10.20;99.90
5796;DHT22;2924;51.458;7.046;2023-12-28T09:04:54;10.20;99.90
5796;DHT22;2924;51.458;7.046;2023-12-28T09:07:20;10.20;99.90
5796;DHT22;2924;51.458;7.046;2023-12-28T09:09:46;10.20;99.90
5796;DHT22;2924;51.458;7.046;2023-12-28T09:12:12;10.20;99.90
5796;DHT22;2924;51.458;7.046;2023-12-28T09:14:37;10.20;99.90
5796;DHT22;2924;51.458;7.046;2023-12-28T09:17:03;10.20;99.90
5796;DHT22;2924;51.458;7.046;2023-12-28T09:19:29;10.20;99.90
5796;DHT22;2924;51.458;7.046;2023-12-28T09:21:54;10.20;99.90
5796;DHT22;2924;51.458;7.046;2023-12-28T09:24:20;10.20;99.90
5796;DHT22;2924;51.458;7.046;2023-12-28T09:26:45;10.20;99.90
5796;DHT22;2924;51.458;7.046;2023-12-28T09:29:11;10.20;99.90
5796;DHT22;2924;51.458;7.046;2023-12-28T09:31:37;10.20;99.90
5796;DHT22;2924;51.458;7.046;2023-12-28T09:34:03;10.20;99.90
5796;DHT22;2924;51.458;7.046;2023-12-28T09:36:30;10.20;99.90
5796;DHT22;2924;51.458;7.046;2023-12-28T09:38:56;10.30;99.90
5796;DHT22;2924;51.458;7.046;2023-12-28T09:41:23;10.30;99.90
5796;DHT22;2924;51.458;7.046;2023-12-28T09:43:56;10.40;99.90
5796;DHT22;2924;51.458;7.046;2023-12-28T09:46:24;10.50;99.90
5796;DHT22;2924;51.458;7.046;2023-12-28T09:48:52;10.50;99.90
5796;DHT22;2924;51.458;7.046;2023-12-28T09:51:19;10.50;99.90
5796;DHT22;2924;51.458;7.046;2023-12-28T09:53:45;10.50;99.90
5796;DHT22;2924;51.458;7.046;2023-12-28T09:56:13;10.50;99.90
5796;DHT22;2924;51.458;7.046;2023-12-28T09:58:40;10.40;99.90
5796;DHT22;2924;51.458;7.046;2023-12-28T10:01:06;10.40;99.90
5796;DHT22;2924;51.458;7.046;2023-12-28T10:03:32;10.50;99.90
5796;DHT22;2924;51.458;7.046;2023-12-28T10:05:58;10.50;99.90
5796;DHT22;2924;51.458;7.046;2023-12-28T10:08:24;10.50;99.90
5796;DHT22;2924;51.458;7.046;2023-12-28T10:10:50;10.50;99.90
5796;DHT22;2924;51.458;7.046;2023-12-28T10:13:20;10.50;99.90
5796;DHT22;2924;51.458;7.046;2023-12-28T10:15:47;10.50;99.90
5796;DHT22;2924;51.458;7.046;2023-12-28T10:18:13;10.50;99.90
5796;DHT22;2924;51.458;7.046;2023-12-28T10:20:39;10.50;99.90
5796;DHT22;2924;51.458;7.046;2023-12-28T10:23:04;10.60;99.90
5796;DHT22;2924;51.458;7.046;2023-12-28T10:25:32;10.60;99.90
5796;DHT22;2924;51.458;7.046;2023-12-28T10:28:03;10.60;99.90
5796;DHT22;2924;51.458;7.046;2023-12-28T10:30:29;10.70;99.90
5796;DHT22;2924;51.458;7.046;2023-12-28T10:32:55;10.70;99.90
5796;DHT22;2924;51.458;7.046;2023-12-28T10:35:21;10.60;99.90
5796;DHT22;2924;51.458;7.046;2023-12-28T10:37:47;10.70;99.90
5796;DHT22;2924;51.458;7.046;2023-12-28T10:40:15;10.70;99.90
5796;DHT22;2924;51.458;7.046;2023-12-28T10:43:02;10.70;99.90
5796;DHT22;2924;51.458;7.046;2023-12-28T10:45:29;10.80;99.90
5796;DHT22;2924;51.458;7.046;2023-12-28T10:48:10;10.80;99.90
5796;DHT22;2924;51.458;7.046;2023-12-28T10:50:54;10.80;99.90
5796;DHT22;2924;51.458;7.046;2023-12-28T10:53:30;10.80;99.90
5796;DHT22;2924;51.458;7.046;2023-12-28T10:58:42;10.80;99.90
5796;DHT22;2924;51.458;7.046;2023-12-28T11:01:21;10.90;99.90
5796;DHT22;2924;51.458;7.046;2023-12-28T11:03:55;10.90;99.90
5796;DHT22;2924;51.458;7.046;2023-12-28T11:06:23;11.00;99.90
5796;DHT22;2924;51.458;7.046;2023-12-28T11:08:51;11.00;99.90
5796;DHT22;2924;51.458;7.046;2023-12-28T11:11:19;11.00;99.90
5796;DHT22;2924;51.458;7.046;2023-12-28T11:13:47;11.00;99.90
5796;DHT22;2924;51.458;7.046;2023-12-28T11:16:14;10.90;99.90
5796;DHT22;2924;51.458;7.046;2023-12-28T11:18:40;11.00;99.90
5796;DHT22;2924;51.458;7.046;2023-12-28T11:21:06;11.00;99.90
5796;DHT22;2924;51.458;7.046;2023-12-28T11:23:32;11.10;99.90
5796;DHT22;2924;51.458;7.046;2023-12-28T11:25:57;11.10;99.90
5796;DHT22;2924;51.458;7.046;2023-12-28T11:28:23;11.10;99.90
5796;DHT22;2924;51.458;7.046;2023-12-28T11:30:51;11.20;99.90
5796;DHT22;2924;51.458;7.046;2023-12-28T11:33:17;11.30;99.90
5796;DHT22;2924;51.458;7.046;2023-12-28T11:35:43;11.30;99.90
5796;DHT22;2924;51.458;7.046;2023-12-28T11:38:09;11.30;99.90
5796;DHT22;2924;51.458;7.046;2023-12-28T11:40:40;11.20;99.90
5796;DHT22;2924;51.458;7.046;2023-12-28T11:43:15;11.20;99.90
5796;DHT22;2924;51.458;7.046;2023-12-28T11:45:50;11.30;99.90
5796;DHT22;2924;51.458;7.046;2023-12-28T11:48:26;11.30;99.90
5796;DHT22;2924;51.458;7.046;2023-12-28T11:50:56;11.30;99.90
5796;DHT22;2924;51.458;7.046;2023-12-28T11:53:23;11.30;99.90
5796;DHT22;2924;51.458;7.046;2023-12-28T11:55:49;11.30;99.90
5796;DHT22;2924;51.458;7.046;2023-12-28T11:58:19;11.40;99.90
5796;DHT22;2924;51.458;7.046;2023-12-28T12:00:45;11.40;99.90
5796;DHT22;2924;51.458;7.046;2023-12-28T12:03:13;11.40;99.90
5796;DHT22;2924;51.458;7.046;2023-12-28T12:05:39;11.30;99.90
5796;DHT22;2924;51.458;7.046;2023-12-28T12:08:06;11.30;99.90
5796;DHT22;2924;51.458;7.046;2023-12-28T12:10:34;11.30;99.90
5796;DHT22;2924;51.458;7.046;2023-12-28T12:13:00;11.30;99.90
5796;DHT22;2924;51.458;7.046;2023-12-28T12:15:26;11.30;99.90
5796;DHT22;2924;51.458;7.046;2023-12-28T12:17:51;11.30;99.90
5796;DHT22;2924;51.458;7.046;2023-12-28T12:20:17;11.40;99.90
5796;DHT22;2924;51.458;7.046;2023-12-28T12:22:43;11.40;99.90
5796;DHT22;2924;51.458;7.046;2023-12-28T12:25:09;11.30;99.90
5796;DHT22;2924;51.458;7.046;2023-12-28T12:27:36;11.30;99.90
5796;DHT22;2924;51.458;7.046;2023-12-28T12:30:04;11.30;99.90
5796;DHT22;2924;51.458;7.046;2023-12-28T12:32:30;11.30;99.90
5796;DHT22;2924;51.458;7.046;2023-12-28T12:34:57;11.40;99.90
5796;DHT22;2924;51.458;7.046;2023-12-28T12:37:23;11.40;99.90
5796;DHT22;2924;51.458;7.046;2023-12-28T12:39:49;11.40;99.90
5796;DHT22;2924;51.458;7.046;2023-12-28T12:42:15;11.40;99.90
5796;DHT22;2924;51.458;7.046;2023-12-28T12:44:40;11.40;99.90
5796;DHT22;2924;51.458;7.046;2023-12-28T12:47:07;11.50;99.90
5796;DHT22;2924;51.458;7.046;2023-12-28T12:49:32;11.50;99.90
5796;DHT22;2924;51.458;7.046;2023-12-28T12:51:58;11.60;99.90
5796;DHT22;2924;51.458;7.046;2023-12-28T12:54:23;11.60;99.90
5796;DHT22;2924;51.458;7.046;2023-12-28T12:56:50;11.60;99.90
5796;DHT22;2924;51.458;7.046;2023-12-28T12:59:16;11.50;99.90
5796;DHT22;2924;51.458;7.046;2023-12-28T13:01:46;11.50;99.90
5796;DHT22;2924;51.458;7.046;2023-12-28T13:04:14;11.50;99.90
5796;DHT22;2924;51.458;7.046;2023-12-28T13:06:41;11.50;99.90
5796;DHT22;2924;51.458;7.046;2023-12-28T13:09:07;11.50;99.90
5796;DHT22;2924;51.458;7.046;2023-12-28T13:11:36;11.60;99.90
5796;DHT22;2924;51.458;7.046;2023-12-28T13:14:01;11.50;99.90
5796;DHT22;2924;51.458;7.046;2023-12-28T13:16:27;11.40;99.90
5796;DHT22;2924;51.458;7.046;2023-12-28T13:18:53;11.40;99.90
5796;DHT22;2924;51.458;7.046;2023-12-28T13:21:19;11.40;99.90
5796;DHT22;2924;51.458;7.046;2023-12-28T13:23:44;11.40;99.90
5796;DHT22;2924;51.458;7.046;2023-12-28T13:26:10;11.40;99.90
5796;DHT22;2924;51.458;7.046;2023-12-28T13:28:35;11.40;99.90
5796;DHT22;2924;51.458;7.046;2023-12-28T13:31:01;11.40;99.90
5796;DHT22;2924;51.458;7.046;2023-12-28T13:33:27;11.40;99.90
5796;DHT22;2924;51.458;7.046;2023-12-28T13:35:52;11.30;99.90
5796;DHT22;2924;51.458;7.046;2023-12-28T13:38:18;11.30;99.90
5796;DHT22;2924;51.458;7.046;2023-12-28T13:40:43;11.30;99.90
5796;DHT22;2924;51.458;7.046;2023-12-28T13:43:09;11.30;99.90
5796;DHT22;2924;51.458;7.046;2023-12-28T13:45:35;11.30;99.90
5796;DHT22;2924;51.458;7.046;2023-12-28T13:48:01;11.20;99.90
5796;DHT22;2924;51.458;7.046;2023-12-28T13:50:26;11.20;99.90
5796;DHT22;2924;51.458;7.046;2023-12-28T13:52:53;11.30;99.90
5796;DHT22;2924;51.458;7.046;2023-12-28T13:55:19;11.20;99.90
5796;DHT22;2924;51.458;7.046;2023-12-28T13:57:45;11.10;99.90
5796;DHT22;2924;51.458;7.046;2023-12-28T14:00:11;11.10;99.90
5796;DHT22;2924;51.458;7.046;2023-12-28T14:02:37;11.10;99.90
5796;DHT22;2924;51.458;7.046;2023-12-28T14:05:03;11.00;99.90
5796;DHT22;2924;51.458;7.046;2023-12-28T14:07:28;11.00;99.90
5796;DHT22;2924;51.458;7.046;2023-12-28T14:09:54;11.00;99.90
5796;DHT22;2924;51.458;7.046;2023-12-28T14:12:20;11.00;99.90
5796;DHT22;2924;51.458;7.046;2023-12-28T14:14:45;11.00;99.90
5796;DHT22;2924;51.458;7.046;2023-12-28T14:17:11;10.90;99.90
5796;DHT22;2924;51.458;7.046;2023-12-28T14:19:36;11.00;99.90
5796;DHT22;2924;51.458;7.046;2023-12-28T14:22:02;10.90;99.90
5796;DHT22;2924;51.458;7.046;2023-12-28T14:24:28;11.00;99.90
5796;DHT22;2924;51.458;7.046;2023-12-28T14:26:54;11.00;99.90
5796;DHT22;2924;51.458;7.046;2023-12-28T14:29:24;11.00;99.90
5796;DHT22;2924;51.458;7.046;2023-12-28T14:31:50;11.00;99.90
5796;DHT22;2924;51.458;7.046;2023-12-28T14:34:16;10.90;99.90
5796;DHT22;2924;51.458;7.046;2023-12-28T14:36:44;11.00;99.90
5796;DHT22;2924;51.458;7.046;2023-12-28T14:39:15;11.00;99.90
5796;DHT22;2924;51.458;7.046;2023-12-28T14:41:43;10.90;99.90
5796;DHT22;2924;51.458;7.046;2023-12-28T14:44:09;10.80;99.90
5796;DHT22;2924;51.458;7.046;2023-12-28T14:46:35;10.80;99.90
5796;DHT22;2924;51.458;7.046;2023-12-28T14:49:00;10.80;99.90
5796;DHT22;2924;51.458;7.046;2023-12-28T14:51:28;10.80;99.90
5796;DHT22;2924;51.458;7.046;2023-12-28T14:53:53;10.70;99.90
5796;DHT22;2924;51.458;7.046;2023-12-28T14:56:19;10.70;99.90
5796;DHT22;2924;51.458;7.046;2023-12-28T14:58:46;10.60;99.90
5796;DHT22;2924;51.458;7.046;2023-12-28T15:01:14;10.60;99.90
5796;DHT22;2924;51.458;7.046;2023-12-28T15:03:40;10.60;99.90
5796;DHT22;2924;51.458;7.046;2023-12-28T15:06:06;10.50;99.90
5796;DHT22;2924;51.458;7.046;2023-12-28T15:08:31;10.50;99.90
5796;DHT22;2924;51.458;7.046;2023-12-28T15:10:57;10.60;99.90
5796;DHT22;2924;51.458;7.046;2023-12-28T15:13:23;10.60;99.90
5796;DHT22;2924;51.458;7.046;2023-12-28T15:15:49;10.60;99.90
5796;DHT22;2924;51.458;7.046;2023-12-28T15:18:16;10.50;99.90
5796;DHT22;2924;51.458;7.046;2023-12-28T15:20:44;10.40;99.90
5796;DHT22;2924;51.458;7.046;2023-12-28T15:23:10;10.40;99.90
5796;DHT22;2924;51.458;7.046;2023-12-28T15:25:35;10.40;99.90
5796;DHT22;2924;51.458;7.046;2023-12-28T15:28:01;10.40;99.90
5796;DHT22;2924;51.458;7.046;2023-12-28T15:30:27;10.30;99.90
5796;DHT22;2924;51.458;7.046;2023-12-28T15:32:52;10.30;99.90
5796;DHT22;2924;51.458;7.046;2023-12-28T15:35:18;10.20;99.90
5796;DHT22;2924;51.458;7.046;2023-12-28T15:37:43;10.20;99.90
5796;DHT22;2924;51.458;7.046;2023-12-28T15:40:09;10.30;99.90
5796;DHT22;2924;51.458;7.046;2023-12-28T15:42:35;10.30;99.90
5796;DHT22;2924;51.458;7.046;2023-12-28T15:45:01;10.20;99.90
5796;DHT22;2924;51.458;7.046;2023-12-28T15:47:27;10.20;99.90
5796;DHT22;2924;51.458;7.046;2023-12-28T15:49:53;10.20;99.90
5796;DHT22;2924;51.458;7.046;2023-12-28T15:52:19;10.30;99.90
5796;DHT22;2924;51.458;7.046;2023-12-28T15:54:44;10.30;99.90
5796;DHT22;2924;51.458;7.046;2023-12-28T15:57:10;10.40;99.90
5796;DHT22;2924;51.458;7.046;2023-12-28T15:59:36;10.40;99.90
5796;DHT22;2924;51.458;7.046;2023-12-28T16:02:01;10.50;99.90
5796;DHT22;2924;51.458;7.046;2023-12-28T16:04:27;10.50;99.90
5796;DHT22;2924;51.458;7.046;2023-12-28T16:06:52;10.40;99.90